sensor_id;sensor_type;location;lat;lon;timestamp;P1;durP1;ratioP1;P2;durP2;ratioP2
61112;SDS011;47184;57.998;56.184;2022-07-03T00:00:45;24.35;;;9.73;;
61112;SDS011;47184;57.998;56.184;2022-07-03T00:03:11;22.52;;;9.70;;
61112;SDS011;47184;57.998;56.184;2022-07-03T00:05:37;21.50;;;9.40;;
61112;SDS011;47184;57.998;56.184;2022-07-03T00:08:03;25.73;;;10.25;;
61112;SDS011;47184;57.998;56.184;2022-07-03T00:10:30;18.60;;;9.27;;
61112;SDS011;47184;57.998;56.184;2022-07-03T00:12:55;20.75;;;9.23;;
61112;SDS011;47184;57.998;56.184;2022-07-03T00:15:22;25.80;;;9.98;;
61112;SDS011;47184;57.998;56.184;2022-07-03T00:17:48;20.90;;;10.00;;
61112;SDS011;47184;57.998;56.184;2022-07-03T00:20:14;24.92;;;9.13;;
61112;SDS011;47184;57.998;56.184;2022-07-03T00:22:41;22.08;;;9.48;;
61112;SDS011;47184;57.998;56.184;2022-07-03T00:25:10;25.58;;;9.35;;
61112;SDS011;47184;57.998;56.184;2022-07-03T00:27:38;29.33;;;10.05;;
61112;SDS011;47184;57.998;56.184;2022-07-03T00:30:04;31.60;;;9.05;;
61112;SDS011;47184;57.998;56.184;2022-07-03T00:32:33;23.05;;;9.50;;
61112;SDS011;47184;57.998;56.184;2022-07-03T00:35:03;24.67;;;9.40;;
61112;SDS011;47184;57.998;56.184;2022-07-03T00:37:29;20.50;;;8.43;;
61112;SDS011;47184;57.998;56.184;2022-07-03T00:39:55;32.33;;;8.95;;
61112;SDS011;47184;57.998;56.184;2022-07-03T00:42:23;25.63;;;8.75;;
61112;SDS011;47184;57.998;56.184;2022-07-03T00:44:52;23.40;;;8.48;;
61112;SDS011;47184;57.998;56.184;2022-07-03T00:47:21;21.45;;;8.43;;
61112;SDS011;47184;57.998;56.184;2022-07-03T00:49:50;25.02;;;8.23;;
61112;SDS011;47184;57.998;56.184;2022-07-03T00:52:21;25.38;;;9.05;;
61112;SDS011;47184;57.998;56.184;2022-07-03T00:54:51;20.42;;;8.60;;
61112;SDS011;47184;57.998;56.184;2022-07-03T00:57:20;21.00;;;8.48;;
61112;SDS011;47184;57.998;56.184;2022-07-03T00:59:48;19.33;;;7.65;;
61112;SDS011;47184;57.998;56.184;2022-07-03T01:04:58;17.10;;;8.65;;
61112;SDS011;47184;57.998;56.184;2022-07-03T01:07:37;25.63;;;9.18;;
61112;SDS011;47184;57.998;56.184;2022-07-03T01:10:09;28.38;;;9.05;;
61112;SDS011;47184;57.998;56.184;2022-07-03T01:15:36;29.38;;;9.40;;
61112;SDS011;47184;57.998;56.184;2022-07-03T01:18:31;21.77;;;9.48;;
61112;SDS011;47184;57.998;56.184;2022-07-03T01:21:04;23.75;;;9.27;;
61112;SDS011;47184;57.998;56.184;2022-07-03T01:26:10;24.75;;;8.43;;
61112;SDS011;47184;57.998;56.184;2022-07-03T01:28:41;16.33;;;8.77;;
61112;SDS011;47184;57.998;56.184;2022-07-03T01:31:10;26.58;;;9.27;;
61112;SDS011;47184;57.998;56.184;2022-07-03T01:33:43;16.02;;;8.43;;
61112;SDS011;47184;57.998;56.184;2022-07-03T01:36:12;18.33;;;8.20;;
61112;SDS011;47184;57.998;56.184;2022-07-03T01:38:41;22.00;;;8.63;;
61112;SDS011;47184;57.998;56.184;2022-07-03T01:41:08;18.23;;;7.63;;
61112;SDS011;47184;57.998;56.184;2022-07-03T01:43:44;17.08;;;7.78;;
61112;SDS011;47184;57.998;56.184;2022-07-03T01:46:13;20.58;;;8.25;;
61112;SDS011;47184;57.998;56.184;2022-07-03T01:48:43;24.27;;;8.65;;
61112;SDS011;47184;57.998;56.184;2022-07-03T01:51:13;22.20;;;8.82;;
61112;SDS011;47184;57.998;56.184;2022-07-03T01:53:43;18.13;;;8.15;;
61112;SDS011;47184;57.998;56.184;2022-07-03T01:56:10;25.85;;;8.27;;
61112;SDS011;47184;57.998;56.184;2022-07-03T01:58:37;18.27;;;7.93;;
61112;SDS011;47184;57.998;56.184;2022-07-03T02:03:58;22.42;;;7.95;;
61112;SDS011;47184;57.998;56.184;2022-07-03T02:06:44;15.07;;;7.07;;
61112;SDS011;47184;57.998;56.184;2022-07-03T02:09:17;11.95;;;6.22;;
61112;SDS011;47184;57.998;56.184;2022-07-03T02:11:47;15.85;;;6.97;;
61112;SDS011;47184;57.998;56.184;2022-07-03T02:14:14;24.15;;;7.55;;
61112;SDS011;47184;57.998;56.184;2022-07-03T02:19:10;17.02;;;6.72;;
61112;SDS011;47184;57.998;56.184;2022-07-03T02:21:40;18.40;;;7.15;;
61112;SDS011;47184;57.998;56.184;2022-07-03T02:26:51;16.17;;;6.77;;
61112;SDS011;47184;57.998;56.184;2022-07-03T02:31:57;13.05;;;6.22;;
61112;SDS011;47184;57.998;56.184;2022-07-03T02:34:25;24.00;;;5.40;;
61112;SDS011;47184;57.998;56.184;2022-07-03T02:36:55;15.77;;;5.90;;
61112;SDS011;47184;57.998;56.184;2022-07-03T02:39:27;13.15;;;5.30;;
61112;SDS011;47184;57.998;56.184;2022-07-03T02:45:13;16.52;;;4.53;;
61112;SDS011;47184;57.998;56.184;2022-07-03T02:50:20;8.10;;;3.70;;
61112;SDS011;47184;57.998;56.184;2022-07-03T02:58:31;10.38;;;4.22;;
61112;SDS011;47184;57.998;56.184;2022-07-03T03:01:20;14.75;;;5.00;;
61112;SDS011;47184;57.998;56.184;2022-07-03T03:04:02;16.05;;;5.43;;
61112;SDS011;47184;57.998;56.184;2022-07-03T03:06:35;12.57;;;4.38;;
61112;SDS011;47184;57.998;56.184;2022-07-03T03:09:02;10.57;;;4.38;;
61112;SDS011;47184;57.998;56.184;2022-07-03T03:13:58;12.50;;;4.45;;
61112;SDS011;47184;57.998;56.184;2022-07-03T03:16:26;13.57;;;4.07;;
61112;SDS011;47184;57.998;56.184;2022-07-03T03:18:52;12.35;;;3.95;;
61112;SDS011;47184;57.998;56.184;2022-07-03T03:21:19;19.52;;;4.32;;
61112;SDS011;47184;57.998;56.184;2022-07-03T03:23:49;6.70;;;3.35;;
61112;SDS011;47184;57.998;56.184;2022-07-03T03:26:21;11.57;;;3.40;;
61112;SDS011;47184;57.998;56.184;2022-07-03T03:28:49;6.95;;;3.35;;
61112;SDS011;47184;57.998;56.184;2022-07-03T03:31:16;10.52;;;4.18;;
61112;SDS011;47184;57.998;56.184;2022-07-03T03:33:48;8.43;;;3.50;;
61112;SDS011;47184;57.998;56.184;2022-07-03T03:36:19;8.82;;;3.80;;
61112;SDS011;47184;57.998;56.184;2022-07-03T03:38:47;11.25;;;3.80;;
61112;SDS011;47184;57.998;56.184;2022-07-03T03:41:14;7.95;;;3.65;;
61112;SDS011;47184;57.998;56.184;2022-07-03T03:43:41;12.45;;;3.92;;
61112;SDS011;47184;57.998;56.184;2022-07-03T03:46:07;12.63;;;4.05;;
61112;SDS011;47184;57.998;56.184;2022-07-03T03:48:33;15.45;;;3.17;;
61112;SDS011;47184;57.998;56.184;2022-07-03T03:51:00;11.80;;;3.88;;
61112;SDS011;47184;57.998;56.184;2022-07-03T03:53:28;11.60;;;4.22;;
61112;SDS011;47184;57.998;56.184;2022-07-03T03:58:23;37.35;;;4.22;;
61112;SDS011;47184;57.998;56.184;2022-07-03T04:00:49;10.40;;;3.58;;
61112;SDS011;47184;57.998;56.184;2022-07-03T04:03:18;8.57;;;3.53;;
61112;SDS011;47184;57.998;56.184;2022-07-03T04:05:44;7.20;;;4.13;;
61112;SDS011;47184;57.998;56.184;2022-07-03T04:08:11;8.05;;;3.90;;
61112;SDS011;47184;57.998;56.184;2022-07-03T04:10:38;26.42;;;5.40;;
61112;SDS011;47184;57.998;56.184;2022-07-03T04:13:04;14.77;;;4.50;;
61112;SDS011;47184;57.998;56.184;2022-07-03T04:15:30;12.43;;;4.20;;
61112;SDS011;47184;57.998;56.184;2022-07-03T04:17:57;11.98;;;3.55;;
61112;SDS011;47184;57.998;56.184;2022-07-03T04:20:23;9.40;;;3.90;;
61112;SDS011;47184;57.998;56.184;2022-07-03T04:22:49;11.90;;;3.55;;
61112;SDS011;47184;57.998;56.184;2022-07-03T04:25:16;13.02;;;3.28;;
61112;SDS011;47184;57.998;56.184;2022-07-03T04:27:43;8.70;;;3.47;;
61112;SDS011;47184;57.998;56.184;2022-07-03T04:30:09;11.45;;;2.88;;
61112;SDS011;47184;57.998;56.184;2022-07-03T04:32:36;6.05;;;3.50;;
61112;SDS011;47184;57.998;56.184;2022-07-03T04:35:02;9.13;;;3.28;;
61112;SDS011;47184;57.998;56.184;2022-07-03T04:37:29;14.15;;;3.45;;
61112;SDS011;47184;57.998;56.184;2022-07-03T04:39:55;29.38;;;4.78;;
61112;SDS011;47184;57.998;56.184;2022-07-03T04:42:22;31.20;;;4.18;;
61112;SDS011;47184;57.998;56.184;2022-07-03T04:44:48;11.15;;;4.05;;
61112;SDS011;47184;57.998;56.184;2022-07-03T04:47:14;9.38;;;3.75;;
61112;SDS011;47184;57.998;56.184;2022-07-03T04:49:41;10.20;;;3.33;;
61112;SDS011;47184;57.998;56.184;2022-07-03T04:52:08;8.68;;;3.55;;
61112;SDS011;47184;57.998;56.184;2022-07-03T04:54:34;12.68;;;3.55;;
61112;SDS011;47184;57.998;56.184;2022-07-03T04:57:00;39.63;;;5.55;;
61112;SDS011;47184;57.998;56.184;2022-07-03T04:59:27;24.77;;;4.00;;
61112;SDS011;47184;57.998;56.184;2022-07-03T05:01:53;102.15;;;11.38;;
61112;SDS011;47184;57.998;56.184;2022-07-03T05:04:19;15.30;;;4.15;;
61112;SDS011;47184;57.998;56.184;2022-07-03T05:06:45;9.88;;;3.60;;
61112;SDS011;47184;57.998;56.184;2022-07-03T05:09:11;5.45;;;2.97;;
61112;SDS011;47184;57.998;56.184;2022-07-03T05:11:38;27.80;;;5.70;;
61112;SDS011;47184;57.998;56.184;2022-07-03T05:14:05;23.52;;;4.18;;
61112;SDS011;47184;57.998;56.184;2022-07-03T05:16:31;8.38;;;3.92;;
61112;SDS011;47184;57.998;56.184;2022-07-03T05:18:57;6.38;;;3.10;;
61112;SDS011;47184;57.998;56.184;2022-07-03T05:21:23;11.35;;;3.35;;
61112;SDS011;47184;57.998;56.184;2022-07-03T05:23:49;20.05;;;3.95;;
61112;SDS011;47184;57.998;56.184;2022-07-03T05:26:15;17.85;;;5.45;;
61112;SDS011;47184;57.998;56.184;2022-07-03T05:28:42;12.95;;;3.90;;
61112;SDS011;47184;57.998;56.184;2022-07-03T05:31:08;11.38;;;3.00;;
61112;SDS011;47184;57.998;56.184;2022-07-03T05:33:34;16.02;;;3.63;;
61112;SDS011;47184;57.998;56.184;2022-07-03T05:36:00;11.38;;;2.88;;
61112;SDS011;47184;57.998;56.184;2022-07-03T05:38:26;23.35;;;3.97;;
61112;SDS011;47184;57.998;56.184;2022-07-03T05:41:11;5.78;;;2.95;;
61112;SDS011;47184;57.998;56.184;2022-07-03T05:43:37;17.25;;;4.10;;
61112;SDS011;47184;57.998;56.184;2022-07-03T05:46:03;8.40;;;3.03;;
61112;SDS011;47184;57.998;56.184;2022-07-03T05:48:30;5.72;;;2.70;;
61112;SDS011;47184;57.998;56.184;2022-07-03T05:50:56;8.18;;;2.83;;
61112;SDS011;47184;57.998;56.184;2022-07-03T05:53:22;14.40;;;3.00;;
61112;SDS011;47184;57.998;56.184;2022-07-03T05:55:48;6.80;;;2.42;;
61112;SDS011;47184;57.998;56.184;2022-07-03T05:58:15;14.77;;;2.70;;
61112;SDS011;47184;57.998;56.184;2022-07-03T06:00:41;8.20;;;2.38;;
61112;SDS011;47184;57.998;56.184;2022-07-03T06:03:14;5.03;;;1.67;;
61112;SDS011;47184;57.998;56.184;2022-07-03T06:05:40;13.77;;;2.42;;
61112;SDS011;47184;57.998;56.184;2022-07-03T06:08:06;10.13;;;2.95;;
61112;SDS011;47184;57.998;56.184;2022-07-03T06:10:33;3.70;;;2.08;;
61112;SDS011;47184;57.998;56.184;2022-07-03T06:12:59;6.63;;;2.70;;
61112;SDS011;47184;57.998;56.184;2022-07-03T06:15:25;12.10;;;2.70;;
61112;SDS011;47184;57.998;56.184;2022-07-03T06:17:51;4.93;;;2.20;;
61112;SDS011;47184;57.998;56.184;2022-07-03T06:20:17;8.65;;;2.15;;
61112;SDS011;47184;57.998;56.184;2022-07-03T06:22:44;6.45;;;1.98;;
61112;SDS011;47184;57.998;56.184;2022-07-03T06:25:11;9.05;;;2.53;;
61112;SDS011;47184;57.998;56.184;2022-07-03T06:27:38;11.95;;;2.15;;
61112;SDS011;47184;57.998;56.184;2022-07-03T06:30:04;6.70;;;2.95;;
61112;SDS011;47184;57.998;56.184;2022-07-03T06:32:30;14.48;;;3.17;;
61112;SDS011;47184;57.998;56.184;2022-07-03T06:34:57;10.57;;;2.33;;
61112;SDS011;47184;57.998;56.184;2022-07-03T06:37:23;8.63;;;2.40;;
61112;SDS011;47184;57.998;56.184;2022-07-03T06:39:49;7.40;;;2.40;;
61112;SDS011;47184;57.998;56.184;2022-07-03T06:42:15;12.88;;;2.70;;
61112;SDS011;47184;57.998;56.184;2022-07-03T06:44:45;12.15;;;2.95;;
61112;SDS011;47184;57.998;56.184;2022-07-03T06:47:11;16.50;;;3.42;;
61112;SDS011;47184;57.998;56.184;2022-07-03T06:49:37;11.10;;;2.75;;
61112;SDS011;47184;57.998;56.184;2022-07-03T06:52:03;23.75;;;3.00;;
61112;SDS011;47184;57.998;56.184;2022-07-03T06:54:29;8.35;;;2.00;;
61112;SDS011;47184;57.998;56.184;2022-07-03T06:56:55;12.13;;;3.03;;
61112;SDS011;47184;57.998;56.184;2022-07-03T06:59:22;4.90;;;2.80;;
61112;SDS011;47184;57.998;56.184;2022-07-03T07:01:48;6.57;;;2.45;;
61112;SDS011;47184;57.998;56.184;2022-07-03T07:04:15;8.65;;;2.28;;
61112;SDS011;47184;57.998;56.184;2022-07-03T07:06:41;8.07;;;2.53;;
61112;SDS011;47184;57.998;56.184;2022-07-03T07:09:07;6.03;;;2.20;;
61112;SDS011;47184;57.998;56.184;2022-07-03T07:11:33;3.03;;;1.83;;
61112;SDS011;47184;57.998;56.184;2022-07-03T07:13:59;3.53;;;1.73;;
61112;SDS011;47184;57.998;56.184;2022-07-03T07:16:25;5.50;;;2.75;;
61112;SDS011;47184;57.998;56.184;2022-07-03T07:18:51;10.57;;;2.63;;
61112;SDS011;47184;57.998;56.184;2022-07-03T07:21:17;5.65;;;2.03;;
61112;SDS011;47184;57.998;56.184;2022-07-03T07:23:43;25.55;;;3.58;;
61112;SDS011;47184;57.998;56.184;2022-07-03T07:26:09;7.28;;;2.15;;
61112;SDS011;47184;57.998;56.184;2022-07-03T07:28:36;5.35;;;1.70;;
61112;SDS011;47184;57.998;56.184;2022-07-03T07:31:02;3.58;;;1.70;;
61112;SDS011;47184;57.998;56.184;2022-07-03T07:33:28;8.90;;;1.88;;
61112;SDS011;47184;57.998;56.184;2022-07-03T07:44:14;2.50;;;1.60;;
61112;SDS011;47184;57.998;56.184;2022-07-03T07:46:40;3.72;;;1.73;;
61112;SDS011;47184;57.998;56.184;2022-07-03T07:50:47;3.92;;;1.42;;
61112;SDS011;47184;57.998;56.184;2022-07-03T08:04:53;9.15;;;2.15;;
61112;SDS011;47184;57.998;56.184;2022-07-03T08:24:46;16.20;;;2.22;;
61112;SDS011;47184;57.998;56.184;2022-07-03T08:27:12;4.53;;;1.83;;
61112;SDS011;47184;57.998;56.184;2022-07-03T08:29:38;3.58;;;2.00;;
61112;SDS011;47184;57.998;56.184;2022-07-03T08:32:04;3.70;;;1.35;;
61112;SDS011;47184;57.998;56.184;2022-07-03T08:34:32;10.80;;;1.92;;
61112;SDS011;47184;57.998;56.184;2022-07-03T08:36:58;9.02;;;2.22;;
61112;SDS011;47184;57.998;56.184;2022-07-03T08:39:24;5.70;;;2.13;;
61112;SDS011;47184;57.998;56.184;2022-07-03T08:41:50;12.38;;;2.00;;
61112;SDS011;47184;57.998;56.184;2022-07-03T08:44:18;6.75;;;1.90;;
61112;SDS011;47184;57.998;56.184;2022-07-03T08:46:45;7.20;;;1.75;;
61112;SDS011;47184;57.998;56.184;2022-07-03T08:49:14;2.00;;;1.30;;
61112;SDS011;47184;57.998;56.184;2022-07-03T08:51:42;10.73;;;1.85;;
61112;SDS011;47184;57.998;56.184;2022-07-03T08:54:10;7.72;;;1.80;;
61112;SDS011;47184;57.998;56.184;2022-07-03T08:56:36;9.80;;;2.58;;
61112;SDS011;47184;57.998;56.184;2022-07-03T08:59:05;4.15;;;1.73;;
61112;SDS011;47184;57.998;56.184;2022-07-03T09:01:34;10.15;;;1.45;;
61112;SDS011;47184;57.998;56.184;2022-07-03T09:04:06;5.38;;;1.48;;
61112;SDS011;47184;57.998;56.184;2022-07-03T09:06:35;2.50;;;1.13;;
61112;SDS011;47184;57.998;56.184;2022-07-03T09:09:02;2.70;;;1.00;;
61112;SDS011;47184;57.998;56.184;2022-07-03T09:11:29;3.70;;;0.93;;
61112;SDS011;47184;57.998;56.184;2022-07-03T09:13:55;29.65;;;3.00;;
61112;SDS011;47184;57.998;56.184;2022-07-03T09:16:21;8.95;;;1.50;;
61112;SDS011;47184;57.998;56.184;2022-07-03T09:18:47;9.68;;;1.30;;
61112;SDS011;47184;57.998;56.184;2022-07-03T09:21:13;5.13;;;1.30;;
61112;SDS011;47184;57.998;56.184;2022-07-03T09:23:43;8.23;;;1.30;;
61112;SDS011;47184;57.998;56.184;2022-07-03T09:26:14;3.80;;;1.35;;
61112;SDS011;47184;57.998;56.184;2022-07-03T09:31:14;8.60;;;1.30;;
61112;SDS011;47184;57.998;56.184;2022-07-03T09:33:50;6.32;;;1.30;;
61112;SDS011;47184;57.998;56.184;2022-07-03T09:36:41;3.13;;;0.90;;
61112;SDS011;47184;57.998;56.184;2022-07-03T09:39:22;16.05;;;2.70;;
61112;SDS011;47184;57.998;56.184;2022-07-03T09:41:54;64.72;;;5.90;;
61112;SDS011;47184;57.998;56.184;2022-07-03T09:44:38;1.42;;;1.00;;
61112;SDS011;47184;57.998;56.184;2022-07-03T09:47:10;1.25;;;0.82;;
61112;SDS011;47184;57.998;56.184;2022-07-03T09:49:46;7.13;;;1.17;;
61112;SDS011;47184;57.998;56.184;2022-07-03T09:57:38;4.10;;;1.00;;
61112;SDS011;47184;57.998;56.184;2022-07-03T10:00:23;8.07;;;0.82;;
61112;SDS011;47184;57.998;56.184;2022-07-03T10:02:51;2.72;;;1.05;;
61112;SDS011;47184;57.998;56.184;2022-07-03T10:05:26;4.45;;;1.00;;
61112;SDS011;47184;57.998;56.184;2022-07-03T10:07:58;2.15;;;0.98;;
61112;SDS011;47184;57.998;56.184;2022-07-03T10:10:29;7.32;;;0.98;;
61112;SDS011;47184;57.998;56.184;2022-07-03T10:12:57;11.05;;;1.63;;
61112;SDS011;47184;57.998;56.184;2022-07-03T10:15:25;8.52;;;1.40;;
61112;SDS011;47184;57.998;56.184;2022-07-03T10:17:53;4.65;;;1.23;;
61112;SDS011;47184;57.998;56.184;2022-07-03T10:20:34;14.35;;;1.73;;
61112;SDS011;47184;57.998;56.184;2022-07-03T10:23:02;10.93;;;1.50;;
61112;SDS011;47184;57.998;56.184;2022-07-03T10:25:29;14.77;;;2.22;;
61112;SDS011;47184;57.998;56.184;2022-07-03T10:27:56;11.68;;;2.50;;
61112;SDS011;47184;57.998;56.184;2022-07-03T10:30:24;19.15;;;2.33;;
61112;SDS011;47184;57.998;56.184;2022-07-03T10:32:51;11.15;;;1.98;;
61112;SDS011;47184;57.998;56.184;2022-07-03T10:35:23;13.32;;;2.60;;
61112;SDS011;47184;57.998;56.184;2022-07-03T10:43:46;5.50;;;2.00;;
61112;SDS011;47184;57.998;56.184;2022-07-03T10:46:32;19.92;;;2.85;;
61112;SDS011;47184;57.998;56.184;2022-07-03T10:48:59;9.25;;;2.53;;
61112;SDS011;47184;57.998;56.184;2022-07-03T10:51:30;4.45;;;2.38;;
61112;SDS011;47184;57.998;56.184;2022-07-03T10:54:20;7.60;;;2.35;;
61112;SDS011;47184;57.998;56.184;2022-07-03T11:00:11;7.97;;;2.45;;
61112;SDS011;47184;57.998;56.184;2022-07-03T11:05:07;7.70;;;2.20;;
61112;SDS011;47184;57.998;56.184;2022-07-03T11:15:39;5.78;;;2.28;;
61112;SDS011;47184;57.998;56.184;2022-07-03T11:18:17;26.95;;;4.13;;
61112;SDS011;47184;57.998;56.184;2022-07-03T11:25:53;15.35;;;3.50;;
61112;SDS011;47184;57.998;56.184;2022-07-03T11:33:45;4.95;;;2.70;;
61112;SDS011;47184;57.998;56.184;2022-07-03T11:44:04;29.77;;;5.80;;
61112;SDS011;47184;57.998;56.184;2022-07-03T11:46:32;10.15;;;3.95;;
61112;SDS011;47184;57.998;56.184;2022-07-03T11:51:32;10.27;;;4.03;;
61112;SDS011;47184;57.998;56.184;2022-07-03T11:53:58;29.15;;;5.43;;
61112;SDS011;47184;57.998;56.184;2022-07-03T11:56:24;12.88;;;5.85;;
61112;SDS011;47184;57.998;56.184;2022-07-03T11:58:53;35.65;;;6.97;;
61112;SDS011;47184;57.998;56.184;2022-07-03T12:03:53;17.08;;;5.78;;
61112;SDS011;47184;57.998;56.184;2022-07-03T12:06:50;26.13;;;5.82;;
61112;SDS011;47184;57.998;56.184;2022-07-03T12:11:52;8.52;;;5.00;;
61112;SDS011;47184;57.998;56.184;2022-07-03T12:14:48;17.38;;;4.85;;
61112;SDS011;47184;57.998;56.184;2022-07-03T12:19:48;10.80;;;4.38;;
61112;SDS011;47184;57.998;56.184;2022-07-03T12:24:58;11.00;;;3.78;;
61112;SDS011;47184;57.998;56.184;2022-07-03T12:27:30;9.85;;;4.20;;
61112;SDS011;47184;57.998;56.184;2022-07-03T12:29:57;11.88;;;4.10;;
61112;SDS011;47184;57.998;56.184;2022-07-03T12:34:27;21.20;;;4.05;;
61112;SDS011;47184;57.998;56.184;2022-07-03T12:36:54;9.50;;;3.97;;
61112;SDS011;47184;57.998;56.184;2022-07-03T12:39:42;11.98;;;4.32;;
61112;SDS011;47184;57.998;56.184;2022-07-03T12:42:21;5.00;;;3.40;;
61112;SDS011;47184;57.998;56.184;2022-07-03T12:44:58;11.15;;;3.80;;
61112;SDS011;47184;57.998;56.184;2022-07-03T12:47:26;9.35;;;3.42;;
61112;SDS011;47184;57.998;56.184;2022-07-03T12:50:04;23.17;;;5.60;;
61112;SDS011;47184;57.998;56.184;2022-07-03T12:52:48;22.70;;;4.90;;
61112;SDS011;47184;57.998;56.184;2022-07-03T12:55:29;7.88;;;3.75;;
61112;SDS011;47184;57.998;56.184;2022-07-03T12:58:14;6.78;;;2.90;;
61112;SDS011;47184;57.998;56.184;2022-07-03T13:01:00;13.77;;;3.13;;
61112;SDS011;47184;57.998;56.184;2022-07-03T13:03:31;10.40;;;2.97;;
61112;SDS011;47184;57.998;56.184;2022-07-03T13:06:01;15.00;;;3.50;;
61112;SDS011;47184;57.998;56.184;2022-07-03T13:08:27;12.23;;;3.30;;
61112;SDS011;47184;57.998;56.184;2022-07-03T13:10:54;5.70;;;3.13;;
61112;SDS011;47184;57.998;56.184;2022-07-03T13:13:21;14.00;;;3.72;;
61112;SDS011;47184;57.998;56.184;2022-07-03T13:15:47;12.35;;;3.22;;
61112;SDS011;47184;57.998;56.184;2022-07-03T13:18:13;16.83;;;2.97;;
61112;SDS011;47184;57.998;56.184;2022-07-03T13:20:39;11.15;;;3.25;;
61112;SDS011;47184;57.998;56.184;2022-07-03T13:23:05;11.40;;;3.05;;
61112;SDS011;47184;57.998;56.184;2022-07-03T13:25:33;4.28;;;2.70;;
61112;SDS011;47184;57.998;56.184;2022-07-03T13:28:08;6.70;;;2.50;;
61112;SDS011;47184;57.998;56.184;2022-07-03T13:30:35;8.77;;;2.88;;
61112;SDS011;47184;57.998;56.184;2022-07-03T13:33:02;8.98;;;3.00;;
61112;SDS011;47184;57.998;56.184;2022-07-03T13:35:29;7.45;;;2.60;;
61112;SDS011;47184;57.998;56.184;2022-07-03T13:37:55;5.93;;;3.22;;
61112;SDS011;47184;57.998;56.184;2022-07-03T13:40:21;7.80;;;2.63;;
61112;SDS011;47184;57.998;56.184;2022-07-03T13:42:47;4.45;;;1.95;;
61112;SDS011;47184;57.998;56.184;2022-07-03T13:45:14;4.10;;;2.00;;
61112;SDS011;47184;57.998;56.184;2022-07-03T13:47:40;7.75;;;1.75;;
61112;SDS011;47184;57.998;56.184;2022-07-03T13:50:06;5.05;;;1.17;;
61112;SDS011;47184;57.998;56.184;2022-07-03T13:52:33;7.43;;;1.83;;
61112;SDS011;47184;57.998;56.184;2022-07-03T13:54:59;3.65;;;1.80;;
61112;SDS011;47184;57.998;56.184;2022-07-03T13:57:25;19.10;;;2.65;;
61112;SDS011;47184;57.998;56.184;2022-07-03T13:59:51;9.55;;;2.17;;
61112;SDS011;47184;57.998;56.184;2022-07-03T14:02:17;5.57;;;1.15;;
61112;SDS011;47184;57.998;56.184;2022-07-03T14:04:43;2.80;;;1.50;;
61112;SDS011;47184;57.998;56.184;2022-07-03T14:07:09;15.35;;;2.15;;
61112;SDS011;47184;57.998;56.184;2022-07-03T14:09:35;6.20;;;1.88;;
61112;SDS011;47184;57.998;56.184;2022-07-03T14:12:01;6.18;;;1.83;;
61112;SDS011;47184;57.998;56.184;2022-07-03T14:14:27;6.68;;;1.77;;
61112;SDS011;47184;57.998;56.184;2022-07-03T14:16:53;10.10;;;2.13;;
61112;SDS011;47184;57.998;56.184;2022-07-03T14:19:19;8.50;;;1.75;;
61112;SDS011;47184;57.998;56.184;2022-07-03T14:21:45;9.25;;;1.90;;
61112;SDS011;47184;57.998;56.184;2022-07-03T14:24:11;5.15;;;1.92;;
61112;SDS011;47184;57.998;56.184;2022-07-03T14:26:37;13.20;;;2.63;;
61112;SDS011;47184;57.998;56.184;2022-07-03T14:29:22;6.05;;;0.95;;
61112;SDS011;47184;57.998;56.184;2022-07-03T14:32:06;13.45;;;2.20;;
61112;SDS011;47184;57.998;56.184;2022-07-03T14:34:52;16.58;;;2.60;;
61112;SDS011;47184;57.998;56.184;2022-07-03T14:37:20;7.18;;;2.40;;
61112;SDS011;47184;57.998;56.184;2022-07-03T14:39:49;6.30;;;1.95;;
61112;SDS011;47184;57.998;56.184;2022-07-03T14:42:16;7.55;;;1.85;;
61112;SDS011;47184;57.998;56.184;2022-07-03T14:44:43;4.40;;;1.45;;
61112;SDS011;47184;57.998;56.184;2022-07-03T14:47:09;8.55;;;2.35;;
61112;SDS011;47184;57.998;56.184;2022-07-03T14:49:35;7.05;;;2.25;;
61112;SDS011;47184;57.998;56.184;2022-07-03T14:52:02;9.43;;;2.10;;
61112;SDS011;47184;57.998;56.184;2022-07-03T14:54:29;9.35;;;2.08;;
61112;SDS011;47184;57.998;56.184;2022-07-03T14:56:57;9.55;;;3.28;;
61112;SDS011;47184;57.998;56.184;2022-07-03T14:59:30;5.93;;;2.90;;
61112;SDS011;47184;57.998;56.184;2022-07-03T15:02:19;4.50;;;2.28;;
61112;SDS011;47184;57.998;56.184;2022-07-03T15:07:30;7.90;;;4.20;;
61112;SDS011;47184;57.998;56.184;2022-07-03T15:10:03;9.48;;;3.60;;
61112;SDS011;47184;57.998;56.184;2022-07-03T15:12:32;9.85;;;3.13;;
61112;SDS011;47184;57.998;56.184;2022-07-03T15:15:01;3.67;;;2.38;;
61112;SDS011;47184;57.998;56.184;2022-07-03T15:17:29;11.55;;;4.20;;
61112;SDS011;47184;57.998;56.184;2022-07-03T15:19:56;5.60;;;3.25;;
61112;SDS011;47184;57.998;56.184;2022-07-03T15:22:28;3.95;;;2.80;;
61112;SDS011;47184;57.998;56.184;2022-07-03T15:24:56;6.93;;;3.10;;
61112;SDS011;47184;57.998;56.184;2022-07-03T15:27:23;4.65;;;3.22;;
61112;SDS011;47184;57.998;56.184;2022-07-03T15:29:52;11.80;;;4.25;;
61112;SDS011;47184;57.998;56.184;2022-07-03T15:32:18;15.70;;;4.78;;
61112;SDS011;47184;57.998;56.184;2022-07-03T15:34:45;7.85;;;4.90;;
61112;SDS011;47184;57.998;56.184;2022-07-03T15:42:42;11.20;;;5.45;;
61112;SDS011;47184;57.998;56.184;2022-07-03T15:45:23;8.38;;;4.53;;
61112;SDS011;47184;57.998;56.184;2022-07-03T15:54:08;10.60;;;5.80;;
61112;SDS011;47184;57.998;56.184;2022-07-03T15:56:39;9.98;;;5.38;;
61112;SDS011;47184;57.998;56.184;2022-07-03T15:59:12;19.30;;;9.05;;
61112;SDS011;47184;57.998;56.184;2022-07-03T16:01:54;12.98;;;6.03;;
61112;SDS011;47184;57.998;56.184;2022-07-03T16:04:47;19.65;;;7.25;;
61112;SDS011;47184;57.998;56.184;2022-07-03T16:07:24;20.67;;;6.90;;
61112;SDS011;47184;57.998;56.184;2022-07-03T16:09:52;14.25;;;7.82;;
61112;SDS011;47184;57.998;56.184;2022-07-03T16:12:19;11.93;;;7.35;;
61112;SDS011;47184;57.998;56.184;2022-07-03T16:14:48;11.55;;;7.45;;
61112;SDS011;47184;57.998;56.184;2022-07-03T16:17:19;23.13;;;8.15;;
61112;SDS011;47184;57.998;56.184;2022-07-03T16:19:47;21.40;;;7.20;;
61112;SDS011;47184;57.998;56.184;2022-07-03T16:22:14;19.55;;;7.68;;
61112;SDS011;47184;57.998;56.184;2022-07-03T16:24:41;18.40;;;8.18;;
61112;SDS011;47184;57.998;56.184;2022-07-03T16:27:11;15.00;;;8.45;;
61112;SDS011;47184;57.998;56.184;2022-07-03T16:29:40;11.13;;;6.63;;
61112;SDS011;47184;57.998;56.184;2022-07-03T16:32:09;20.67;;;8.57;;
61112;SDS011;47184;57.998;56.184;2022-07-03T16:34:40;15.55;;;9.02;;
61112;SDS011;47184;57.998;56.184;2022-07-03T16:39:14;15.60;;;8.35;;
61112;SDS011;47184;57.998;56.184;2022-07-03T16:41:49;27.00;;;10.63;;
61112;SDS011;47184;57.998;56.184;2022-07-03T16:44:18;27.90;;;10.68;;
61112;SDS011;47184;57.998;56.184;2022-07-03T16:46:48;15.52;;;8.30;;
61112;SDS011;47184;57.998;56.184;2022-07-03T16:49:20;16.15;;;9.43;;
61112;SDS011;47184;57.998;56.184;2022-07-03T16:54:23;18.17;;;7.40;;
61112;SDS011;47184;57.998;56.184;2022-07-03T16:56:50;16.60;;;7.22;;
61112;SDS011;47184;57.998;56.184;2022-07-03T16:59:16;15.57;;;8.98;;
61112;SDS011;47184;57.998;56.184;2022-07-03T17:01:47;24.98;;;10.45;;
61112;SDS011;47184;57.998;56.184;2022-07-03T17:04:16;21.13;;;9.20;;
61112;SDS011;47184;57.998;56.184;2022-07-03T17:06:44;18.13;;;9.57;;
61112;SDS011;47184;57.998;56.184;2022-07-03T17:09:11;15.05;;;9.80;;
61112;SDS011;47184;57.998;56.184;2022-07-03T17:11:42;19.70;;;9.57;;